Flight Track Log - Related Links

Times and Time Zones

All times are in EDT time to prevent confusion due to time zone crossing. See the N288PA flight status page for this flight to view local times or setup timezone preferences in your user account.

Time Position Orientation Groundspeed Altitude Reporting Facility
EDT Latitude Longitude Course Direction KTS MPH feet Rate Location/Type
Wed 10:35:15 PM 35.8478 -112.3181 237° Southwest 97 112 8,300  Level Los Angeles Center
Wed 10:36:17 PM 35.8325 -112.3461 236° Southwest 99 114 8,500 195 Climbing Los Angeles Center
Wed 10:37:00 PM 35.9003 -112.3405 255° West  Level FlightAware Approximate
Wed 10:37:18 PM 35.8178 -112.3753 238° Southwest 99 114 8,700  Level Los Angeles Center
Wed 10:38:00 PM 35.8925 -112.3753 255° West  Level FlightAware Approximate
Wed 10:38:20 PM 35.8017 -112.4044 236° Southwest 101 116 9,000  Level Los Angeles Center
Wed 10:39:00 PM 35.8848 -112.4102 255° West  Level FlightAware Approximate
Wed 10:39:22 PM 35.7817 -112.4308 227° Southwest 104 120 9,000  Level Los Angeles Center
Wed 10:40:24 PM 35.7622 -112.4661 236° Southwest 119 137 8,900  Descending Los Angeles Center
Wed 10:41:27 PM 35.7361 -112.5031 229° Southwest 120 138 9,000 49 Climbing Los Angeles Center
Wed 10:42:27 PM 35.7169 -112.5364 235° Southwest 119 137 9,000  Level Los Angeles Center
Wed 10:43:29 PM 35.6972 -112.5700 234° Southwest 121 139 9,000 -49 Level Los Angeles Center
Wed 10:44:30 PM 35.6739 -112.6014 228° Southwest 125 144 8,900  Descending Los Angeles Center
Wed 10:45:32 PM 35.6544 -112.6358 235° Southwest 118 136 9,000 48 Climbing Los Angeles Center
Wed 10:46:34 PM 35.6361 -112.6678 235° Southwest 116 133 9,000  Level Los Angeles Center
Wed 10:47:36 PM 35.6169 -112.7008 235° Southwest 117 135 9,000  Level Los Angeles Center
Wed 10:53:32 PM 35.5010 -112.8880 235° Southwest 110 127  Descending FlightAware ADS-B
Wed 10:54:02 PM 35.4920 -112.9040 235° Southwest 108 124 607 Level FlightAware ADS-B
Wed 10:54:27 PM 35.4860 -112.9150 236° Southwest 108 124 629 Level FlightAware ADS-B
Wed 10:55:02 PM 35.4740 -112.9330 231° Southwest 112 129 647 Level FlightAware ADS-B
Wed 10:55:32 PM 35.4640 -112.9470 229° Southwest 111 128 676 Level FlightAware ADS-B
Wed 10:55:57 PM 35.4550 -112.9600 230° Southwest 114 131 702 Level FlightAware ADS-B
Wed 10:56:22 PM 35.4480 -112.9740 238° Southwest 116 133 726 Level FlightAware ADS-B
Wed 10:56:57 PM 35.4370 -112.9940 236° Southwest 124 143 751 Level FlightAware ADS-B
Wed 10:57:22 PM 35.4300 -113.0070 237° Southwest 116 133 789 Level FlightAware ADS-B
Wed 10:58:07 PM 35.4150 -113.0300 231° Southwest 109 125 819 Level FlightAware ADS-B
Wed 10:58:32 PM 35.4080 -113.0410 232° Southwest 109 125 879 Level FlightAware ADS-B
Wed 10:59:02 PM 35.3970 -113.0550 226° Southwest 113 130 917 Level FlightAware ADS-B
Wed 10:59:42 PM 35.3830 -113.0740 228° Southwest 118 136 966 Level FlightAware ADS-B
Wed 11:00:07 PM 35.3750 -113.0890 237° Southwest 118 136 1,040 Level FlightAware ADS-B
Wed 11:00:42 PM 35.3650 -113.1080 237° Southwest 117 135 1,093 Level FlightAware ADS-B
Wed 11:01:07 PM 35.3550 -113.1230 231° Southwest 127 146 1,176 Level FlightAware ADS-B
Wed 11:01:37 PM 35.3470 -113.1420 243° Southwest 125 144 1,244 Level FlightAware ADS-B
Wed 11:02:02 PM 35.3380 -113.1540 227° Southwest 126 145 1,337 Level FlightAware ADS-B
Wed 11:02:17 PM 35.3320 -113.1640 234° Southwest 127 146 1,425 Level FlightAware ADS-B
Wed 11:02:47 PM 35.3210 -113.1800 230° Southwest 126 145 1,484 Level FlightAware ADS-B
Wed 11:03:27 PM 35.3090 -113.2000 234° Southwest 121 139 1,617 Level FlightAware ADS-B
Wed 11:03:57 PM 35.2960 -113.2180 228° Southwest 113 130 1,837 Level FlightAware ADS-B
Wed 11:04:22 PM 35.2880 -113.2290 228° Southwest 114 131 2,045 Level FlightAware ADS-B
Wed 11:04:47 PM 35.2800 -113.2400 228° Southwest 114 131 2,259 Level FlightAware ADS-B
Wed 11:05:32 PM 35.2680 -113.2680 242° Southwest 119 137 2,523 Level FlightAware ADS-B
Wed 11:06:12 PM 35.2550 -113.2910 235° Southwest 131 151 3,195 Level FlightAware ADS-B
Wed 11:06:42 PM 35.2420 -113.3060 223° Southwest 122 140 4,186 Level FlightAware ADS-B
Wed 11:07:07 PM 35.2330 -113.3170 225° Southwest 122 140 5,455 Level FlightAware ADS-B
Wed 11:08:21 PM 35.2092 -113.3536 225° Southwest 123 142 9,000 3,649 Climbing Los Angeles Center
Wed 11:09:35 PM 35.1892 -113.3864 233° Southwest 120 138 9,000  Level Los Angeles Center
Wed 11:10:36 PM 35.1675 -113.4167 229° Southwest 120 138 9,000  Level Los Angeles Center
Wed 11:11:38 PM 35.1447 -113.4569 235° Southwest 121 139 9,000  Level Los Angeles Center
Wed 11:12:40 PM 35.1236 -113.4986 238° Southwest 120 138 9,000  Level Los Angeles Center
Wed 11:13:41 PM 35.1006 -113.5258 224° Southwest 117 135 9,000  Level Los Angeles Center
Wed 11:14:43 PM 35.0767 -113.5567 227° Southwest 123 142 9,000  Level Los Angeles Center
Wed 11:15:45 PM 35.0558 -113.5889 232° Southwest 122 140 9,000  Level Los Angeles Center
Wed 11:16:46 PM 35.0400 -113.6267 243° Southwest 124 143 9,000  Level Los Angeles Center
Wed 11:17:48 PM 35.0164 -113.6639 232° Southwest 118 136 9,000  Level Los Angeles Center
Wed 11:18:50 PM 34.9956 -113.6928 229° Southwest 115 132 9,000  Level Los Angeles Center
Wed 11:19:52 PM 34.9756 -113.7228 231° Southwest 114 131 9,000  Level Los Angeles Center
Wed 11:20:53 PM 34.9583 -113.7522 234° Southwest 110 127 9,000  Level Los Angeles Center
Wed 11:21:55 PM 34.9406 -113.7822 234° Southwest 109 125 9,000  Level Los Angeles Center
Wed 11:22:57 PM 34.9197 -113.8153 232° Southwest 115 132 9,000  Level Los Angeles Center
Wed 11:23:58 PM 34.8950 -113.8564 234° Southwest 122 140 9,000  Level Los Angeles Center
Wed 11:25:00 PM 34.8725 -113.8906 231° Southwest 126 145 9,000  Level Los Angeles Center
Wed 11:26:02 PM 34.8517 -113.9194 229° Southwest 121 139 9,000  Level Los Angeles Center
Wed 11:27:04 PM 34.8331 -113.9506 234° Southwest 115 132 9,000  Level Los Angeles Center
Wed 11:28:06 PM 34.8119 -113.9808 230° Southwest 116 133 9,000  Level Los Angeles Center
Wed 11:29:07 PM 34.7928 -114.0133 234° Southwest 118 136 9,000 -389 Level Los Angeles Center
Wed 11:31:11 PM 34.7511 -114.0803 233° Southwest 113 130 7,800 -581 Descending Los Angeles Center

Login

Don't have an account? Register now (free) for customized features, flight alerts, and more!